This is the latest recevied weather packets stored in our database for station/object SV4FHR-2. If no packets are shown the sender has not sent any weather packets the latest 10 day(s).
| Time | Temp. | Humidity | Pressure | Rain* | Wind** | Luminosity | Snow |
|---|---|---|---|---|---|---|---|
| 1777489181 | 15° C | 81% | 1013 hPa | 0 mm | - | - | - |
| 1777488881 | 15° C | 81% | 1012.8 hPa | 0 mm | - | - | - |
| 1777488581 | 15° C | 81% | 1012.8 hPa | 0 mm | - | - | - |
| 1777488281 | 15° C | 81% | 1013 hPa | 0 mm | - | - | - |
| 1777487981 | 15° C | 81% | 1012.9 hPa | 0 mm | - | - | - |
| 1777487681 | 15° C | 80% | 1012.6 hPa | 0 mm | - | - | - |
| 1777397282 | 20° C | 67% | 1013 hPa | 0 mm | - | - | - |
| 1777396982 | 20.56° C | 66% | 1013 hPa | 0 mm | - | - | - |
| 1777396682 | 20.56° C | 66% | 1013 hPa | 0 mm | - | - | - |
| 1777396382 | 20.56° C | 67% | 1012.9 hPa | 0 mm | - | - | - |
| 1777396082 | 21.11° C | 66% | 1012.9 hPa | 0 mm | - | - | - |
| 1777395782 | 21.67° C | 66% | 1012.9 hPa | 0 mm | - | - | - |
| 1777395482 | 22.22° C | 65% | 1013 hPa | 0 mm | - | - | - |
| 1777395182 | 22.22° C | 64% | 1012.9 hPa | 0 mm | - | - | - |
| 1777394882 | 22.22° C | 64% | 1013 hPa | 0 mm | - | - | - |
| 1777394582 | 22.22° C | 63% | 1012.7 hPa | 0 mm | - | - | - |
| 1777394281 | 22.22° C | 62% | 1013 hPa | 0 mm | - | - | - |
| 1777393982 | 22.22° C | 62% | 1012.9 hPa | 0 mm | - | - | - |
| 1777393681 | 22.22° C | 61% | 1012.8 hPa | 0 mm | - | - | - |
| 1777393381 | 22.22° C | 60% | 1012.8 hPa | 0 mm | - | - | - |
| 1777393081 | 22.22° C | 60% | 1012.9 hPa | 0 mm | - | - | - |
| 1777392781 | 22.78° C | 60% | 1012.8 hPa | 0 mm | - | - | - |
| 1777392481 | 22.78° C | 60% | 1012.9 hPa | 0 mm | - | - | - |
* Rain latest hour (hover to see other rain measurements)
** Current wind speed in m/s (hover to see current wind gust speed)